Tiempo atmosférico en la estación meteorológica de Teguise, Las Palmas (19 m.)



Fecha
DESCASC
Temp. máxima en grados centígrados (hora)
DESCASC
Temp. mínima en grados centígrados (hora)
DESCASC
Temp. media en grados centígrados
DESCASC
Racha de viento máxima en m/sg (hora)
DESCASC
Velocidad máxima media en intervalos de 10 minutos(hora)
DESCASC
Precipitaciones diarias en mm
DESCASC
Precipitaciones de 00:00 a 06:00 en mm
DESCASC
Precipitaciones de 06:00 a 12:00 en mm
DESCASC
Precipitaciones de 12:00 a 18:00 en mm
DESCASC
Precipitaciones de 18:00 a 24:00 en mm
DESCASC
25-04-2019 24.2 (14:30) 16 (00:50) 20.1 11.39 (18:40) 8.06 (23:10) 0 0 0 0 0
24-04-2019 22.1 (15:40) 15.6 (02:40) 18.9 8.61 (19:00) 5.83 (16:50) 0 0 0 0 0
23-04-2019 21.1 (10:40) 16.7 (20:30) 18.9 12.22 (11:20) 7.78 (11:30) 1.4 0 1.4 0 0
22-04-2019 22.4 (14:00) 17.5 (00:00) 19.9 9.44 (00:30) 6.94 (17:50) 0 0 0 0 0
21-04-2019 22.6 (15:30) 15.3 (00:00) 19 11.39 (11:30) 7.78 (13:10) 0 0 0 0 0
20-04-2019 22.2 (13:50) 15.5 (00:00) 18.9 12.5 (14:00) 8.61 (12:30) 0 0 0 0 0
19-04-2019 22.6 (14:30) 16.3 (00:00) 19.4 12.5 (12:40) 8.33 (10:40) 0 0 0 0 0
18-04-2019 21.8 (15:00) 16 (00:00) 18.9 11.67 (21:30) 7.5 (16:40) 0 0 0 0 0
17-04-2019 22.8 (13:00) 15.3 (00:00) 19 9.72 (13:40) 7.22 (13:40) 0 0 0 0 0
16-04-2019 23.1 (14:40) 15.3 (00:00) 19.2 9.17 (15:00) 7.22 (14:20) 0 0 0 0 0
15-04-2019 23.3 (14:20) 15.1 (00:00) 19.2 8.89 (12:30) 6.39 (23:00) 0 0 0 0 0
14-04-2019 23 (13:30) 15.1 (00:00) 19.1 11.67 (10:20) 10 (10:30) 0 0 0 0 0
13-04-2019 22 (13:10) 16.2 (00:00) 19.1 13.61 (04:20) 10 (10:40) 0 0 0 0 0
12-04-2019 21.4 (12:50) 16.5 (00:00) 18.9 13.33 (14:50) 9.72 (08:50) 0 0 0 0 0
11-04-2019 21.4 (14:30) 16.7 (00:00) 19.1 14.17 (11:00) 10.28 (11:40) 0 0 0 0 0
10-04-2019 21 (14:20) 16.3 (00:00) 18.6 14.72 (14:30) 10.28 (15:40) 0 0 0 0 0
09-04-2019 21.9 (13:30) 15.3 (00:00) 18.6 13.61 (23:59) 9.44 (23:59) 0 0 0 0 0
08-04-2019 22.6 (14:00) 14.8 (00:00) 18.7 9.72 (14:00) 6.11 (17:10) 0.2 0.2 0 0 0
07-04-2019 22.1 (14:50) 15.6 (00:00) 18.9 9.17 (18:20) 6.39 (11:00) 0.6 0 0.6 0 0
06-04-2019 20.7 (14:30) 14.7 (00:00) 17.7 11.39 (05:30) 7.78 (04:40) 0.2 0 0.2 0 0
05-04-2019 22 (14:20) 13.8 (00:00) 17.9 14.44 (20:20) 9.17 (20:30) 2 0 0 0.8 1.2
04-04-2019 21.5 (14:20) 14.2 (00:00) 17.8 9.72 (16:20) 6.67 (16:10) 0 0 0 0 0
03-04-2019 22.4 (13:00) 14.7 (00:00) 18.5 9.72 (16:30) 6.94 (16:20) 0 0 0 0 0
02-04-2019 24.9 (14:00) 15.5 (00:00) 20.2 12.78 (07:30) 9.44 (14:10) 0 0 0 0 0
01-04-2019 22.5 (14:00) 13.7 (00:00) 18.1 8.06 (03:30) 5.56 (14:50) 0.4 0.4 0 0 0
31-03-2019 22.2 (15:00) 16.1 (00:00) 19.2 9.17 (14:40) 5.56 (14:00) 0 0 0 0 0
30-03-2019 22.1 (14:00) 13.8 (00:00) 18 7.22 (15:10) 5 (16:50) 0 0 0 0 0
29-03-2019 22.1 (13:00) 14.1 (00:00) 18.1 8.61 (14:10) 6.11 (14:10) 0 0 0 0 0
28-03-2019 22.2 (13:50) 13.7 (00:00) 18 6.94 (14:10) 4.44 (15:10) 0 0 0 0 0
27-03-2019 22 (16:00) 14.5 (00:00) 18.3 6.67 (15:10) 4.72 (11:30) 0 0 0 0 0

Gráficas

Temp. máximas Temp. mínimas Temp. medias Precipitaciones Rachas de viento máximas Velocidades máximas media en intervalos de 10 minutos

Datos horarios

Fecha y hora oficial Temperatura (ºC) Velocidad del viento (km/h) Dirección del viento Racha (km/h) Dirección de racha Precipitación (mm) Presión (hPa) Tendencia (hPa) Humedad (%)
2019-04-25 23:00:00 18 28 Norte 38 Norte 0 1019.4 1.5 77
2019-04-25 22:00:00 17.9 25 Norte 35 Norte 0 1019.1 1.3 79
2019-04-25 21:00:00 18.3 24 Norte 37 Norte 0 1018.3 0.9 76
2019-04-25 20:00:00 19 28 Norte 39 Norte 0 1017.9 0.5 70
2019-04-25 19:00:00 20.1 29 Nordeste 41 Nordeste 0 1017.8 0.1 67
2019-04-25 18:00:00 22.1 22 Norte 34 Norte 0 1017.4 -0.6 62
2019-04-25 17:00:00 22.5 17 Norte 33 Noroeste 0 1017.4 -0.7 55
2019-04-25 16:00:00 23 19 Noroeste 33 Noroeste 0 1017.7 -0.8 49
2019-04-25 15:00:00 23.1 17 Norte 31 Nordeste 0 1018 -0.6 44
2019-04-25 14:00:00 23.8 15 Nordeste 27 Nordeste 0 1018.1 -0.3 41
2019-04-25 13:00:00 23.2 21 Este -- -- 0 1018.5 0.3 45
2019-04-25 12:00:00 22.4 19 Este 29 Nordeste 0 1018.6 0.9 52
2019-04-25 11:00:00 21.8 19 Nordeste 35 Nordeste 0 1018.4 1.2 47
2019-04-25 10:00:00 20.9 16 Nordeste 28 Norte 0 1018.2 1.6 54
2019-04-25 09:00:00 19.7 15 Norte 22 Norte 0 1017.7 1.2 57
2019-04-25 08:00:00 18.4 15 Norte 20 Norte 0 1017.2 0.7 67
2019-04-25 07:00:00 18.2 14 Norte 22 Noroeste 0 1016.6 0 70
2019-04-25 06:00:00 18.1 10 Noroeste 15 Norte 0 1016.5 -0.4 70
2019-04-25 05:00:00 17.9 7 Noroeste 15 Noroeste 0 1016.5 -0.8 73
2019-04-25 04:00:00 17.3 10 Noroeste 19 Noroeste 0 1016.6 -1.3 65
2019-04-25 03:00:00 17.5 12 Noroeste 22 Noroeste 0 1016.9 -1 70
2019-04-25 02:00:00 17.9 15 Noroeste 23 Noroeste 0 1017.3 -0.5 72
2019-04-25 01:00:00 16 7 Noroeste 18 Noroeste 0 1017.9 0.5 74
2019-04-25 00:00:00 17.3 12 Noroeste 22 Noroeste 0 1017.9 1.3 69
2019-04-24 23:00:00 17.7 14 Noroeste 27 Noroeste 0 1017.8 1.5 67
2019-04-24 22:00:00 17.9 15 Noroeste 26 Noroeste 0 1017.4 1.6 66
2019-04-24 21:00:00 18.1 12 Noroeste 23 Noroeste 0 1016.6 1.2 68
2019-04-24 20:00:00 18.9 16 Noroeste 27 Noroeste 0 1016.3 1 64
2019-04-24 19:00:00 20.3 19 Noroeste 31 Noroeste 0 1015.8 0.6 60
2019-04-24 18:00:00 20.4 17 Noroeste 26 Noroeste 0 1015.4 0 61
2019-04-24 17:00:00 21.5 18 Noroeste 27 Oeste 0 1015.3 -0.2 55
2019-04-24 16:00:00 21.6 18 Noroeste 29 Noroeste 0 1015.2 -0.2 56
2019-04-24 15:00:00 21.2 15 Noroeste 24 Oeste 0 1015.4 0.1 59
2019-04-24 14:00:00 21.5 13 Oeste 24 Oeste 0 1015.5 0.4 58
2019-04-24 13:00:00 20.8 14 Oeste 22 Noroeste 0 1015.4 0.7 58
2019-04-24 12:00:00 20.4 14 Noroeste 22 Noroeste 0 1015.3 1.1 59
2019-04-24 11:00:00 19.7 14 Oeste 22 Oeste 0 1015.1 1.4 60
2019-04-24 10:00:00 19 14 Noroeste 21 Noroeste 0 1014.7 1.7 61
2019-04-24 09:00:00 18.2 13 Noroeste 20 Norte 0 1014.2 1.6 64
2019-04-24 08:00:00 16.7 13 Noroeste 20 Noroeste 0 1013.7 1.2 67
2019-04-24 07:00:00 16.1 16 Noroeste 23 Noroeste 0 1013 0.2 68
2019-04-24 06:00:00 16 15 Noroeste 25 Norte 0 1012.6 -0.3 68
2019-04-24 05:00:00 16 15 Noroeste 23 Noroeste 0 1012.5 -0.8 69
2019-04-24 04:00:00 15.9 13 Noroeste 22 Noroeste 0 1012.8 -0.8 68
2019-04-24 03:00:00 15.7 14 Norte 22 Norte 0 1012.9 -0.9 67
2019-04-24 02:00:00 15.8 14 Norte 22 Noroeste 0 1013.3 -0.5 66
2019-04-24 01:00:00 16.3 17 Noroeste 24 Noroeste 0 1013.6 0.3 63
2019-04-24 00:00:00 17 15 Norte 21 Norte 0 1013.8 1 64
2019-04-23 23:00:00 17.1 12 Noroeste 23 Noroeste 0 1013.8 1.6 63
2019-04-23 22:00:00 16.8 10 Norte 23 Norte 0 1013.3 1.6 66
2019-04-23 21:00:00 16.9 13 Noroeste 32 Norte 0 1012.8 1.4 68
2019-04-23 20:00:00 17.8 18 Norte 26 Norte 0 1012.2 0.7 60
2019-04-23 19:00:00 18.5 18 Norte 30 Norte 0 1011.7 0.3 58
2019-04-23 18:00:00 19.6 22 Norte 32 Norte 0 1011.4 -0.2 53
2019-04-23 17:00:00 20.1 23 Norte 35 Norte 0 1011.5 -0.2 52
2019-04-23 16:00:00 20.7 22 Norte 34 Norte 0 1011.4 -0.1 52
2019-04-23 15:00:00 20.2 21 Norte 36 Noroeste 0 1011.6 0 59
2019-04-23 14:00:00 20.4 20 Noroeste 32 Norte 0 1011.7 0.8 63
2019-04-23 13:00:00 19.2 25 Norte 35 Noroeste 0 1011.5 1.1 75
2019-04-23 12:00:00 17.8 23 Norte 44 Noroeste 1.4 1011.6 1.6 93
2019-04-23 11:00:00 20.5 26 Oeste 33 Oeste 0 1010.9 1.5 71
2019-04-23 10:00:00 19.8 20 Oeste 27 Oeste 0 1010.4 1.4 72
2019-04-23 09:00:00 18.9 16 Oeste 24 Oeste 0 1010 1 72
2019-04-23 08:00:00 18.3 14 Oeste 21 Oeste 0 1009.4 0.2 74
2019-04-23 07:00:00 18 9 Oeste 22 Noroeste 0 1009 -0.6 74
2019-04-23 06:00:00 18.3 12 Oeste 22 Oeste 0 1009 -1.2 70
2019-04-23 05:00:00 18.3 12 Noroeste 24 Noroeste 0 1009.2 -1.8 69
2019-04-23 04:00:00 18.1 16 Oeste 25 Oeste 0 1009.6 -1.6 66
2019-04-23 03:00:00 18.4 18 Oeste 28 Oeste 0 1010.2 -1 65
2019-04-23 02:00:00 18.3 15 Noroeste 30 Norte 0 1011 0 64
2019-04-23 01:00:00 18.2 17 Noroeste 32 Norte 0 1011.2 0.3 66
2019-04-23 00:00:00 18.1 20 Noroeste 27 Norte 0 1011.2 0.9 73
2019-04-22 23:00:00 18.2 15 Noroeste 26 Noroeste 0 1011 0.8 75
2019-04-22 22:00:00 18.2 14 Noroeste 29 Noroeste 0 1010.9 0.6 71
2019-04-22 21:00:00 18 17 Noroeste 30 Noroeste 0 1010.3 -0.2 70
2019-04-22 20:00:00 18.4 18 Noroeste 30 Noroeste 0 1010.2 -0.2 69
2019-04-22 19:00:00 19.4 21 Noroeste 31 Noroeste 0 1010.3 -0.4 65
2019-04-22 18:00:00 20.3 24 Noroeste 34 Noroeste 0 1010.5 -0.7 61
2019-04-22 17:00:00 20.7 22 Noroeste 31 Noroeste 0 1010.4 -1.2 61
2019-04-22 16:00:00 21.7 23 Noroeste 33 Noroeste 0 1010.7 -1.4 58
2019-04-22 15:00:00 21.5 24 Noroeste 33 Oeste 0 1011.2 -0.6 59
2019-04-22 14:00:00 22.1 22 Noroeste 31 Oeste 0 1011.6 -0.2 54
2019-04-22 13:00:00 21 23 Noroeste 31 Noroeste 0 1012.1 0.6 58
2019-04-22 12:00:00 20.7 21 Noroeste 31 Noroeste 0 1011.8 0.5 61
2019-04-22 11:00:00 20 20 Noroeste 27 Noroeste 0 1011.8 0.6 62
2019-04-22 10:00:00 19.7 19 Noroeste 28 Noroeste 0 1011.5 0.9 62
2019-04-22 09:00:00 18.5 19 Noroeste 32 Norte 0 1011.3 0.9 69
2019-04-22 08:00:00 18 19 Noroeste 30 Noroeste 0 1011.2 0.7 72
2019-04-22 07:00:00 17.7 19 Noroeste 34 Noroeste 0 1010.6 -0.3 71
2019-04-22 06:00:00 17.6 15 Noroeste 30 Norte 0 1010.4 -1 73
2019-04-22 05:00:00 17.7 21 Noroeste 30 Noroeste 0 1010.5 -1.6 70
2019-04-22 04:00:00 17.6 18 Noroeste 33 Noroeste 0 1010.9 -1.6 76
2019-04-22 03:00:00 17.9 18 Noroeste 32 Oeste 0 1011.4 -1.5 75
2019-04-22 02:00:00 17.8 16 Noroeste 33 Noroeste 0 1012.1 -1 73
2019-04-22 01:00:00 18.2 19 Noroeste 34 Noroeste 0 1012.5 -0.3 74
2019-04-22 00:00:00 18.2 21 Oeste 32 Noroeste 0 1012.9 0.5 75
2019-04-21 23:00:00 18.2 19 Noroeste 31 Noroeste 0 1013.1 1.3 73
2019-04-21 22:00:00 18.3 19 Noroeste 31 Norte 0 1012.8 1 73
2019-04-21 21:00:00 18.6 21 Noroeste 33 Noroeste 0 1012.4 0.5 73
2019-04-21 20:00:00 18.9 17 Noroeste 29 Noroeste 0 1011.8 -0.2 72
2019-04-21 19:00:00 19.9 16 Noroeste 31 Noroeste 0 1011.8 -0.6 69
2019-04-21 18:00:00 20.7 17 Noroeste 33 Noroeste 0 1011.9 -1 66
2019-04-21 17:00:00 21.4 20 Noroeste 35 Norte 0 1012 -0.8 62
2019-04-21 16:00:00 22.2 24 Noroeste -- -- 0 1012.4 -0.6 56
2019-04-21 15:00:00 22.1 -- -- -- -- 0 1012.9 -0.3 59
2019-04-21 14:00:00 20.8 24 Norte 36 Norte 0 1012.8 0 62
2019-04-21 13:00:00 20.8 27 Norte 37 Norte 0 1013 0.5 61
2019-04-21 12:00:00 21.8 23 Norte 41 Norte 0 1013.2 1 57
2019-04-21 11:00:00 19.9 27 Norte 36 Norte 0 1012.8 1 66
2019-04-21 10:00:00 19.1 20 Noroeste 32 Norte 0 1012.5 1.2 71
2019-04-21 09:00:00 18.1 20 Noroeste 28 Norte 0 1012.2 0.8 73
2019-04-21 08:00:00 17.1 18 Noroeste 27 Noroeste 0 1011.8 0.1 75
2019-04-21 07:00:00 16.3 16 Norte 25 Noroeste 0 1011.3 -0.8 78
2019-04-21 06:00:00 16.1 13 Norte 26 Norte 0 1011.4 -1.2 77
2019-04-21 05:00:00 15.7 14 Norte 26 Norte 0 1011.7 -1.4 77
2019-04-21 04:00:00 15.8 14 Norte 24 Norte 0 1012.1 -1.8 76
2019-04-21 03:00:00 15.7 12 Norte 22 Norte 0 1012.6 -1.4 77
2019-04-21 02:00:00 16.6 15 Norte 28 Norte 0 1013.1 -0.9 73
2019-04-21 01:00:00 16.9 19 Norte 30 Norte 0 1013.9 0.3 73
2019-04-21 00:00:00 17.3 21 Norte 30 Norte 0 1014 1.1 75
2019-04-20 23:00:00 17.2 17 Norte 28 Norte 0 1014 1.4 76
2019-04-20 22:00:00 17.4 17 Norte 30 Norte 0 1013.6 1.4 73
2019-04-20 21:00:00 18.2 20 Norte 31 Norte 0 1012.9 0.6 74
2019-04-20 20:00:00 18.4 22 Norte 35 Noroeste 0 1012.6 0.3 69
2019-04-20 19:00:00 19.3 24 Norte 34 Norte 0 1012.2 -0.6 68
2019-04-20 18:00:00 20.5 20 Norte 36 Norte 0 1012.3 -0.8 62
2019-04-20 17:00:00 21.3 19 Noroeste 38 Noroeste 0 1012.3 -1.2 60
2019-04-20 16:00:00 20.6 22 Noroeste 37 Norte 0 1012.8 -1 61
2019-04-20 15:00:00 21.6 26 Norte 42 Norte 0 1013.1 -0.7 53
2019-04-20 14:00:00 21.9 27 Noroeste 45 Norte 0 1013.5 0 56
2019-04-20 13:00:00 20.9 26 Noroeste 42 Noroeste 0 1013.8 0.6 57
2019-04-20 12:00:00 20.5 27 Norte 40 Norte 0 1013.8 0.8 59
2019-04-20 11:00:00 20.5 27 Norte 42 Norte 0 1013.5 0.8 60
2019-04-20 10:00:00 19.5 26 Norte 40 Norte 0 1013.2 0.6 61
2019-04-20 09:00:00 17.5 29 Norte 41 Norte 0 1013 0.2 72
2019-04-20 08:00:00 16.9 23 Norte 36 Norte 0 1012.7 -0.2 69
2019-04-20 07:00:00 16 17 Norte 39 Norte 0 1012.6 -0.5 79
2019-04-20 06:00:00 16.5 15 Norte 35 Norte 0 1012.8 -1.1 73
2019-04-20 05:00:00 16.1 18 Norte 31 Norte 0 1012.9 -1.8 74
2019-04-20 04:00:00 16.5 22 Norte 33 Norte 0 1013.1 -2.2 72
2019-04-20 03:00:00 16.6 21 Norte 37 Norte 0 1013.9 -1.8 70
2019-04-20 02:00:00 17 21 Norte 33 Norte 0 1014.7 -1.4 71
2019-04-20 01:00:00 17.2 19 Norte 35 Norte 0 1015.3 -0.7 70
2019-04-20 00:00:00 17.4 24 Norte 36 Norte 0 1015.7 0.1 70
2019-04-19 23:00:00 16.9 22 Norte 39 Noroeste 0 1016.1 0.8 69
2019-04-19 22:00:00 17.5 21 Norte 38 Norte 0 1016 1 69
2019-04-19 21:00:00 17.7 29 Norte 41 Norte 0 1015.6 0.5 69
2019-04-19 20:00:00 18.4 24 Norte 39 Noroeste 0 1015.3 0.1 67
2019-04-19 19:00:00 18.9 30 Norte 41 Norte 0 1015 -0.6 64
2019-04-19 18:00:00 20.3 26 Norte 39 Noroeste 0 1015.1 -1 59
2019-04-19 17:00:00 21.2 26 Noroeste 38 Noroeste 0 1015.2 -1.2 56
2019-04-19 16:00:00 21.8 23 Noroeste 41 Noroeste 0 1015.6 -1.2 53
2019-04-19 15:00:00 20.9 21 Norte 38 Nordeste 0 1016.1 -0.7 53
2019-04-19 14:00:00 22.1 24 Norte 41 Nordeste 0 1016.4 -0.3 47
2019-04-19 13:00:00 21.8 26 Nordeste 45 Norte 0 1016.8 0.4 49
2019-04-19 12:00:00 20.6 23 Norte 40 Norte 0 1016.8 0.7 57
2019-04-19 11:00:00 20.1 30 Norte 43 Nordeste 0 1016.7 0.8 58
2019-04-19 10:00:00 18.6 27 Norte 40 Norte 0 1016.4 0.6 62
2019-04-19 09:00:00 18.1 25 Norte 38 Norte 0 1016.1 0.7 68
2019-04-19 08:00:00 17.5 22 Norte 31 Norte 0 1015.9 0.3 70
2019-04-19 07:00:00 16.6 23 Norte 39 Norte 0 1015.8 -0.3 71
2019-04-19 06:00:00 16.5 24 Norte 37 Norte 0 1015.4 -1.3 70
2019-04-19 05:00:00 16.5 24 Norte 38 Norte 0 1015.6 -1.7 69
2019-04-19 04:00:00 16.4 23 Norte 33 Norte 0 1016.1 -1.4 66
2019-04-19 03:00:00 16.6 21 Norte 40 Norte 0 1016.7 -1.1 68
2019-04-19 02:00:00 17.1 29 Norte 40 Norte 0 1017.3 -0.3 65
2019-04-19 01:00:00 16.8 23 Norte 38 Norte 0 1017.5 0.1 67
2019-04-19 00:00:00 17 26 Norte 42 Norte 0 1017.8 1 63
2019-04-18 23:00:00 16.9 22 Norte 33 Norte 0 1017.6 1.3 65
2019-04-18 22:00:00 17 21 Norte 42 Noroeste 0 1017.4 1.6 65
2019-04-18 21:00:00 17.6 21 Norte 34 Noroeste 0 1016.8 0.9 66
2019-04-18 20:00:00 17.8 21 Norte 35 Norte 0 1016.3 0.5 62
2019-04-18 19:00:00 19.3 24 Norte 36 Norte 0 1015.8 -0.3 57
2019-04-18 18:00:00 19.1 23 Norte 36 Nordeste 0 1015.9 -0.3 57
2019-04-18 17:00:00 19.9 21 Norte 39 Noroeste 0 1015.8 -0.7 55
2019-04-18 16:00:00 20.7 21 Norte 37 Norte 0 1016.1 -0.6 51
2019-04-18 15:00:00 20.7 24 Norte 38 Nordeste 0 1016.2 -0.8 49
2019-04-18 14:00:00 20.4 27 Norte 39 Nordeste 0 1016.5 -0.2 55
2019-04-18 13:00:00 21 27 Noroeste 39 Noroeste 0 1016.7 0.3 48
2019-04-18 12:00:00 21.3 24 Norte 37 Norte 0 1017 1.2 50
2019-04-18 11:00:00 20.7 23 Norte 35 Noroeste 0 1016.7 1.1 50
2019-04-18 10:00:00 19.4 26 Norte 35 Norte 0 1016.4 1.6 58
2019-04-18 09:00:00 18.4 17 Norte 27 Norte 0 1015.8 1.5 64
2019-04-18 08:00:00 17.1 17 Norte 26 Norte 0 1015.6 1.3 70
2019-04-18 07:00:00 16.4 17 Norte 25 Norte 0 1014.8 0.5 74
2019-04-18 06:00:00 16.3 15 Norte 25 Norte 0 1014.3 -0.4 76
2019-04-18 05:00:00 16.1 15 Norte 24 Norte 0 1014.3 -1 76
2019-04-18 04:00:00 16.9 14 Norte 26 Norte 0 1014.3 -1.4 74
2019-04-18 03:00:00 16.9 13 Norte 23 Noroeste 0 1014.7 -1 71
2019-04-18 02:00:00 17.4 17 Noroeste 24 Noroeste 0 1015.3 -0.1 70
2019-04-18 01:00:00 17.6 17 Norte 27 Norte 0 1015.7 0.8 71
2019-04-18 00:00:00 18.1 16 Norte 23 Norte 0 1015.7 1.8 72
2019-04-17 23:00:00 18 15 Noroeste 21 Norte 0 1015.4 2.1 71
2019-04-17 22:00:00 18.1 14 Noroeste 26 Noroeste 0 1014.9 2.2 73
2019-04-17 21:00:00 18.2 15 Noroeste 23 Norte 0 1013.9 1.2 73
2019-04-17 20:00:00 19.1 14 Noroeste 24 Noroeste 0 1013.3 0.8 71
2019-04-17 19:00:00 19.9 14 Noroeste 29 Noroeste 0 1012.7 0.2 66
2019-04-17 18:00:00 21 20 Noroeste 27 Noroeste 0 1012.7 0.5 62
2019-04-17 17:00:00 21 18 Noroeste 27 Oeste 0 1012.5 -0.5 61
2019-04-17 16:00:00 21 18 Noroeste 24 Oeste 0 1012.5 -0.3 72
2019-04-17 15:00:00 21.2 11 Oeste 23 Oeste 0 1012.2 -0.9 72
2019-04-17 14:00:00 19.2 19 Oeste 35 Oeste 0 1013 0.3 89
2019-04-17 13:00:00 22.2 19 Sudoeste 26 Sudoeste 0 1012.8 0.2 63
2019-04-17 12:00:00 21.8 17 Sudoeste 21 Sur 0 1013.1 1.2 64
2019-04-17 11:00:00 21.1 17 Sudoeste 23 Sudoeste 0 1012.7 1.2 65
2019-04-17 10:00:00 20.4 13 Oeste 21 Oeste 0 1012.6 1.3 66
2019-04-17 09:00:00 19.3 14 Oeste 19 Oeste 0 1011.9 1.1 67
2019-04-17 08:00:00 16.5 7 Sudoeste 14 Oeste 0 1011.5 0.6 80
2019-04-17 07:00:00 16 13 Oeste 15 Oeste 0 1011.3 0.3 81
2019-04-17 06:00:00 15.8 9 Oeste 15 Oeste 0 1010.8 -0.3 83
2019-04-17 05:00:00 15.3 9 Oeste 13 Oeste 0 1010.9 -1 88
2019-04-17 04:00:00 16.1 9 Sudoeste 12 Oeste 0 1011 -1.5 90
2019-04-17 03:00:00 16.1 7 Sudoeste 12 Oeste 0 1011.1 -1.6 89
2019-04-17 02:00:00 17 10 Sudoeste 15 Sudoeste 0 1011.9 -0.7 88
2019-04-17 01:00:00 16.8 9 Sudoeste 11 Sudoeste 0 1012.5 0.3 87
2019-04-17 00:00:00 16.3 6 Sudoeste 9 Sudoeste 0 1012.7 1 86
2019-04-16 23:00:00 16.4 6 Oeste 9 Oeste 0 1012.6 1.3 85
2019-04-16 22:00:00 17 6 Oeste 10 Noroeste 0 1012.2 1.1 81
2019-04-16 21:00:00 18.1 9 Noroeste 13 Noroeste 0 1011.7 0.6 79
2019-04-16 20:00:00 19 10 Noroeste 15 Oeste 0 1011.3 -0.5 74
2019-04-16 19:00:00 20.2 12 Noroeste 18 Oeste 0 1011.1 -1 70
2019-04-16 18:00:00 21.4 12 Oeste 21 Oeste 0 1011.1 -1.4 64
2019-04-16 17:00:00 21.8 14 Noroeste 24 Nordeste 0 1011.8 -1.4 64
2019-04-16 16:00:00 22.3 19 Nordeste 33 Nordeste 0 1012.1 -2.4 62
2019-04-16 15:00:00 22.2 23 Nordeste 33 Nordeste 0 1012.5 -2.8 62
2019-04-16 14:00:00 22.7 22 Nordeste 27 Nordeste 0 1013.2 -2.5 62
2019-04-16 13:00:00 22.1 17 Nordeste 24 Nordeste 0 1014.5 -0.8 63
2019-04-16 12:00:00 21.6 15 Nordeste 22 Este 0 1015.3 0.3 66
2019-04-16 11:00:00 21.9 14 Nordeste 21 Nordeste 0 1015.7 1.3 65
2019-04-16 10:00:00 20.4 12 Nordeste 18 Nordeste 0 1015.3 1.5 71
2019-04-16 09:00:00 18.4 12 Nordeste 15 Nordeste 0 1015 1.4 81
2019-04-16 08:00:00 16.4 9 Nordeste 15 Nordeste 0 1014.4 0.4 91
2019-04-16 07:00:00 15.5 13 Nordeste 19 Nordeste 0 1013.8 -0.9 90
2019-04-16 06:00:00 16.1 14 Nordeste 21 Nordeste 0 1013.6 -1.8 89
2019-04-16 05:00:00 16.5 15 Nordeste 19 Nordeste 0 1014 -2 89
2019-04-16 04:00:00 15.7 12 Nordeste 18 Nordeste 0 1014.7 -1.8 90
2019-04-16 03:00:00 17 15 Nordeste 27 Nordeste 0 1015.4 -1.8 88
2019-04-16 02:00:00 17.4 19 Nordeste 29 Nordeste 0 1016 -1.6 87
2019-04-16 01:00:00 17.6 20 Nordeste 27 Nordeste 0 1016.5 -1 86
2019-04-16 00:00:00 17.6 22 Nordeste 29 Nordeste 0 1017.2 0.2 85
2019-04-15 23:00:00 18.1 23 Nordeste 32 Nordeste 0 1017.6 1.2 84
2019-04-15 22:00:00 17.9 18 Nordeste 24 Nordeste 0 1017.5 1.3 82
2019-04-15 21:00:00 18.2 16 Nordeste 24 Norte 0 1017 1.1 80
2019-04-15 20:00:00 19.2 19 Nordeste 27 Nordeste 0 1016.4 0.2 75
2019-04-15 19:00:00 20.4 17 Nordeste 27 Nordeste 0 1016.2 -0.2 69
2019-04-15 18:00:00 21.4 19 Nordeste 29 Nordeste 0 1015.9 -1.1 68
2019-04-15 17:00:00 21.6 19 Nordeste 27 Nordeste 0 1016.2 -1.2 66
2019-04-15 16:00:00 21.9 21 Nordeste 29 Nordeste 0 1016.4 -1.3 64
2019-04-15 15:00:00 22.6 22 Nordeste 28 Nordeste 0 1017 -1 60
2019-04-15 14:00:00 23 19 Nordeste 25 Nordeste 0 1017.4 -0.5 60
2019-04-15 13:00:00 21.6 17 Este 32 Nordeste 0 1017.7 0.3 63
2019-04-15 12:00:00 22.4 17 Nordeste 28 Nordeste 0 1018 0.8 56
2019-04-15 11:00:00 21.6 19 Nordeste 26 Norte 0 1017.9 1.3 61
2019-04-15 10:00:00 20.6 18 Nordeste 28 Norte 0 1017.4 1.4 64
2019-04-15 09:00:00 18.5 12 Norte 22 Noroeste 0 1017.2 1.5 76
2019-04-15 08:00:00 16.1 8 Norte 13 Norte 0 1016.6 1.4 82
2019-04-15 07:00:00 16.7 12 Noroeste 19 Noroeste 0 1016 0.6 76
2019-04-15 06:00:00 17.2 11 Norte 19 Norte 0 1015.7 -0.1 77
2019-04-15 05:00:00 16.4 5 Noroeste 17 Noroeste 0 1015.2 -0.6 75
2019-04-15 04:00:00 17.3 10 Noroeste 21 Noroeste 0 1015.4 -0.7 73
2019-04-15 03:00:00 17.5 14 Noroeste 21 Oeste 0 1015.8 0 79
2019-04-15 02:00:00 16.3 10 Oeste 14 Oeste 0 1015.8 0.6 84
2019-04-15 01:00:00 17.2 11 Oeste 17 Oeste 0 1016.1 1.1 81
2019-04-15 00:00:00 17.2 11 Oeste 17 Oeste 0 1015.8 1.6 83
2019-04-14 23:00:00 16.8 11 Oeste 17 Oeste 0 1015.2 1.6 80
2019-04-14 22:00:00 18.3 13 Oeste 19 Oeste 0 1015 1.9 80
2019-04-14 21:00:00 18.1 11 Sudoeste 18 Oeste 0 1014.2 1.1 79
2019-04-14 20:00:00 18.9 13 Oeste 20 Oeste 0 1013.6 0.7 76
2019-04-14 19:00:00 19.8 13 Oeste 22 Oeste 0 1013.1 0.2 72
2019-04-14 18:00:00 20.4 17 Oeste 27 Oeste 0 1013.1 -0.3 69
2019-04-14 17:00:00 21 16 Oeste 27 Oeste 0 1012.9 -0.8 68
2019-04-14 16:00:00 21.1 18 Oeste 28 Oeste 0 1012.9 -0.8 69
2019-04-14 15:00:00 21.6 16 Noroeste 26 Oeste 0 1013.4 -0.3 68
2019-04-14 14:00:00 21.6 18 Noroeste 27 Noroeste 0 1013.7 0.7 67
2019-04-14 13:00:00 22.6 12 Este 27 Nordeste 0 1013.7 0.3 62
2019-04-14 12:00:00 21.3 21 Nordeste 33 Nordeste 0 1013.7 -0.2 68
2019-04-14 11:00:00 20.9 28 Nordeste 42 Nordeste 0 1013 0 70
2019-04-14 10:00:00 19.9 23 Nordeste 29 Nordeste 0 1013.4 0.4 73
2019-04-14 09:00:00 18.3 18 Nordeste 26 Nordeste 0 1013.9 0.5 81
2019-04-14 08:00:00 16.4 21 Nordeste 27 Nordeste 0 1013 -0.9 88
2019-04-14 07:00:00 15.6 17 Nordeste 21 Nordeste 0 1013 -1.6 89
2019-04-14 06:00:00 15.3 15 Nordeste 21 Nordeste 0 1013.4 -1.4 88
2019-04-14 05:00:00 15.4 14 Nordeste 18 Nordeste 0 1013.9 -1.6 88
2019-04-14 04:00:00 15.5 13 Norte 22 Nordeste 0 1014.6 -1.3 87
2019-04-14 03:00:00 16.2 19 Nordeste 31 Nordeste 0 1014.8 -1.5 87
2019-04-14 02:00:00 16.4 22 Nordeste 31 Nordeste 0 1015.5 -1 87
2019-04-14 01:00:00 16.6 24 Nordeste 36 Nordeste 0 1015.9 -0.8 86
2019-04-14 00:00:00 16.8 23 Nordeste 36 Nordeste 0 1016.3 0.4 85
2019-04-13 23:00:00 16.9 24 Nordeste 35 Nordeste 0 1016.5 0.8 84
2019-04-13 22:00:00 17.1 25 Nordeste 39 Norte 0 1016.7 0.9 82
2019-04-13 21:00:00 17.3 27 Nordeste 40 Nordeste 0 1015.9 0 79
2019-04-13 20:00:00 18.1 26 Nordeste 40 Nordeste 0 1015.7 0 76
2019-04-13 19:00:00 19.3 21 Norte 37 Nordeste 0 1015.8 -0.2 69
2019-04-13 18:00:00 20.5 21 Norte 40 Nordeste 0 1015.9 -0.7 65
2019-04-13 17:00:00 20.9 28 Nordeste 40 Nordeste 0 1015.7 -1.2 62
2019-04-13 16:00:00 21.2 27 Nordeste 41 Nordeste 0 1016 -1.3 60
2019-04-13 15:00:00 21.5 28 Nordeste 39 Nordeste 0 1016.6 -1.1 61
2019-04-13 14:00:00 20.7 28 Norte 43 Norte 0 1016.9 -0.5 62
2019-04-13 13:00:00 21.3 29 Nordeste 43 Nordeste 0 1017.3 -0.2 59
2019-04-13 12:00:00 20.2 31 Nordeste 46 Norte 0 1017.7 0.6 62
2019-04-13 11:00:00 20 31 Nordeste 48 Nordeste 0 1017.4 0.1 61
2019-04-13 10:00:00 18.6 32 Nordeste 44 Nordeste 0 1017.5 0.6 66
2019-04-13 09:00:00 17.7 30 Nordeste 41 Norte 0 1017.1 0.6 71
2019-04-13 08:00:00 16.7 20 Nordeste 32 Nordeste 0 1017.3 1.2 75
2019-04-13 07:00:00 16.3 22 Norte 39 Nordeste 0 1016.9 0.3 77
2019-04-13 06:00:00 16.3 26 Norte 42 Norte 0 1016.5 -0.5 75
2019-04-13 05:00:00 16.3 32 Norte 49 Nordeste 0 1016.1 -1.5 72
2019-04-13 04:00:00 16.7 30 Norte 43 Nordeste 0 1016.6 -1.5 72
2019-04-13 03:00:00 16.6 26 Nordeste 39 Norte 0 1017 -1.1 71
2019-04-13 02:00:00 16.7 30 Norte 41 Norte 0 1017.6 -0.5 69
2019-04-13 01:00:00 16.9 30 Norte 43 Norte 0 1018.1 0 66
2019-04-13 00:00:00 16.9 26 Norte 41 Norte 0 1018.1 1 68
2019-04-12 23:00:00 17 24 Norte 39 Norte 0 1018.1 1.5 68
2019-04-12 22:00:00 17.2 27 Norte 41 Norte 0 1018.1 1.3 65
2019-04-12 21:00:00 17 26 Norte 42 Norte 0 1017.1 0.9 67
2019-04-12 20:00:00 17.7 29 Norte 44 Nordeste 0 1016.6 0.4 67
2019-04-12 19:00:00 18.5 30 Norte 44 Nordeste 0 1016.8 0.4 62
2019-04-12 18:00:00 19.3 30 Norte 40 Nordeste 0 1016.2 -0.7 62
2019-04-12 17:00:00 19.6 32 Nordeste 44 Nordeste 0 1016.2 -1.3 59
2019-04-12 16:00:00 20.6 33 Nordeste 45 Nordeste 0 1016.4 -1.6 55
2019-04-12 15:00:00 20.9 31 Norte 48 Nordeste 0 1016.9 -1.2 52
2019-04-12 14:00:00 20 30 Norte 44 Nordeste 0 1017.5 -0.6 53
2019-04-12 13:00:00 19.7 33 Norte 46 Nordeste 0 1018 0.1 54
2019-04-12 12:00:00 19.1 30 Norte 45 Nordeste 0 1018.1 0.4 57
2019-04-12 11:00:00 18.7 34 Norte 45 Nordeste 0 1018.1 1 58
2019-04-12 10:00:00 17.9 31 Norte 45 Norte 0 1017.9 1.1 57
2019-04-12 09:00:00 17.5 35 Norte 46 Nordeste 0 1017.7 0.8 59
2019-04-12 08:00:00 17.1 31 Nordeste 41 Norte 0 1017.1 0.3 65
2019-04-12 07:00:00 16.8 26 Norte 45 Norte 0 1016.8 0.1 64
2019-04-12 06:00:00 16.8 29 Norte 43 Norte 0 1016.9 -0.6 64
2019-04-12 05:00:00 16.6 30 Norte 42 Nordeste 0 1016.8 -1.3 63
2019-04-12 04:00:00 16.5 22 Norte 37 Norte 0 1016.7 -2 64
2019-04-12 03:00:00 16.7 30 Norte 43 Norte 0 1017.5 -1.3 63
2019-04-12 02:00:00 16.7 30 Norte 43 Norte 0 1018.1 -0.5 63
2019-04-12 01:00:00 16.9 26 Norte 47 Nordeste 0 1018.7 0.6 62
2019-04-12 00:00:00 17.2 27 Norte 50 Norte 0 1018.8 1.6 63
2019-04-11 23:00:00 17.1 30 Norte 49 Norte 0 1018.6 1.6 63
2019-04-11 22:00:00 17.2 32 Norte 43 Norte 0 1018.1 1.4 64
2019-04-11 21:00:00 17 31 Norte 46 Norte 0 1017.2 0.4 64
2019-04-11 20:00:00 17.4 30 Norte 48 Norte 0 1017 0.6 63
2019-04-11 19:00:00 18.4 28 Norte 46 Norte 0 1016.7 0 62
2019-04-11 18:00:00 19.6 28 Norte 45 Nordeste 0 1016.8 -0.2 56
2019-04-11 17:00:00 20 32 Norte 51 Norte 0 1016.4 -1.3 56
2019-04-11 16:00:00 20.6 30 Norte 51 Nordeste 0 1016.7 -1.7 52
2019-04-11 15:00:00 21.2 35 Nordeste 48 Nordeste 0 1017 -1.7 50
2019-04-11 14:00:00 20.8 34 Norte 50 Norte 0 1017.7 -0.8 49
2019-04-11 13:00:00 21 27 Norte 47 Norte 0 1018.4 0.1 52
2019-04-11 12:00:00 19.6 35 Norte 48 Norte 0 1018.7 0.8 54
2019-04-11 11:00:00 19.1 36 Nordeste 51 Nordeste 0 1018.5 1.3 55
2019-04-11 10:00:00 18.3 32 Norte 47 Norte 0 1018.3 0.9 62
2019-04-11 09:00:00 18 32 Norte 48 Norte 0 1017.9 0.9 61
2019-04-11 08:00:00 17.4 31 Nordeste 46 Norte 0 1017.2 0.2 65
2019-04-11 07:00:00 17.1 30 Norte 46 Norte 0 1017.4 0.3 64
2019-04-11 06:00:00 16.9 35 Norte 46 Norte 0 1017 -0.5 64
2019-04-11 05:00:00 16.9 30 Norte 46 Nordeste 0 1017 -0.6 67
2019-04-11 04:00:00 17.1 28 Norte 45 Norte 0 1017.1 -1 61
2019-04-11 03:00:00 17 32 Norte 45 Norte 0 1017.5 -0.7 65
2019-04-11 02:00:00 17 28 Norte 45 Norte 0 1017.6 -0.6 66
2019-04-11 01:00:00 16.8 33 Norte 47 Norte 0 1018.1 0 66
2019-04-11 00:00:00 17.2 32 Norte 48 Norte 0 1018.2 0.9 66
2019-04-10 23:00:00 17.3 34 Norte 46 Norte 0 1018.2 1.1 64
2019-04-10 22:00:00 17.2 30 Norte 46 Norte 0 1018.1 1.5 64
2019-04-10 21:00:00 17.5 31 Norte 45 Norte 0 1017.3 0.5 64
2019-04-10 20:00:00 17.5 32 Norte 46 Norte 0 1017.1 0.3 63
2019-04-10 19:00:00 18.5 30 Norte 45 Norte 0 1016.6 -0.4 63
2019-04-10 18:00:00 19.5 32 Norte 48 Nordeste 0 1016.8 -0.2 54
2019-04-10 17:00:00 19.6 28 Norte 45 Norte 0 1016.8 -0.6 60
2019-04-10 16:00:00 20.7 27 Norte 49 Norte 0 1017 -0.8 50
2019-04-10 15:00:00 20.6 33 Norte 53 Norte 0 1017 -1 52
2019-04-10 14:00:00 20.1 28 Norte 48 Nordeste 0 1017.4 -0.3 57
2019-04-10 13:00:00 18.9 27 Norte 44 Norte 0 1017.8 0.4 66
2019-04-10 12:00:00 19.3 28 Norte 44 Norte 0 1018 0.8 60
2019-04-10 11:00:00 19.7 31 Norte 48 Norte 0 1017.7 0.8 52
2019-04-10 10:00:00 18 33 Norte 46 Norte 0 1017.4 0.8 62
2019-04-10 09:00:00 17.4 26 Norte 41 Norte 0 1017.2 0.7 67
2019-04-10 08:00:00 17.2 31 Nordeste 47 Norte 0 1016.9 0.5 56
2019-04-10 07:00:00 17 28 Norte 42 Norte 0 1016.6 0.2 56
2019-04-10 06:00:00 16.3 27 Norte 44 Nordeste 0 1016.5 -0.3 60
2019-04-10 05:00:00 16.6 29 Norte 44 Norte 0 1016.4 -0.9 58
2019-04-10 04:00:00 16.8 29 Norte 45 Norte 0 1016.4 -1.3 58
2019-04-10 03:00:00 16.5 29 Norte 48 Norte 0 1016.8 -1.3 60
2019-04-10 02:00:00 17.1 28 Norte 43 Nordeste 0 1017.3 -1 63
2019-04-10 01:00:00 17.1 31 Norte 48 Norte 0 1017.7 -0.1 59
2019-04-10 00:00:00 17.2 34 Norte 49 Norte 0 1018.1 1 57
2019-04-09 23:00:00 17.1 26 Norte 43 Norte 0 1018.3 1.3 60
2019-04-09 22:00:00 17.4 30 Norte 44 Norte 0 1017.8 1.1 66
2019-04-09 21:00:00 17.5 24 Norte 37 Norte 0 1017.1 0.4 62
2019-04-09 20:00:00 17.8 23 Norte 39 Nordeste 0 1017 0.1 59
2019-04-09 19:00:00 18.7 29 Norte 40 Nordeste 0 1016.7 -0.4 58
2019-04-09 18:00:00 19.4 29 Nordeste 41 Nordeste 0 1016.7 -1 56
2019-04-09 17:00:00 20.2 28 Norte 43 Nordeste 0 1016.9 -1.2 54
2019-04-09 16:00:00 20.8 32 Norte 46 Nordeste 0 1017.1 -1.6 56
2019-04-09 15:00:00 21.4 27 Nordeste 42 Nordeste 0 1017.7 -1.1 56
2019-04-09 14:00:00 21.2 31 Nordeste 43 Nordeste 0 1018.1 -0.9 58
2019-04-09 13:00:00 20.5 32 Norte 42 Nordeste 0 1018.7 0 62
2019-04-09 12:00:00 20.5 30 Norte 40 Norte 0 1018.8 0.3 62
2019-04-09 11:00:00 20.3 26 Nordeste 35 Nordeste 0 1019 0.9 63
2019-04-09 10:00:00 19.3 21 Norte 30 Nordeste 0 1018.7 0.9 68
2019-04-09 09:00:00 18.6 15 Norte 36 Norte 0 1018.5 1.1 62
2019-04-09 08:00:00 17.9 27 Norte 36 Nordeste 0 1018.1 1.1 68
2019-04-09 07:00:00 17.7 21 Norte 29 Norte 0 1017.8 0.2 78
2019-04-09 06:00:00 17.6 13 Norte 22 Norte 0 1017.4 -0.7 81
2019-04-09 05:00:00 17.6 18 Norte 23 Norte 0 1017 -1.7 79
2019-04-09 04:00:00 17 14 Norte 19 Norte 0 1017.6 -1.4 78
2019-04-09 03:00:00 16.7 12 Norte 17 Norte 0 1018.1 -0.9 78
2019-04-09 02:00:00 16 10 Norte 15 Norte 0 1018.7 -0.9 79
2019-04-09 01:00:00 15.4 9 Norte 15 Norte 0 1019 -0.4 79
2019-04-09 00:00:00 15.9 11 Norte 17 Norte 0 1019 0.5 74
2019-04-08 23:00:00 16 8 Norte 23 Norte 0 1019.6 1.6 70
2019-04-08 22:00:00 16.8 13 Norte 22 Norte 0 1019.4 1.7 65
2019-04-08 21:00:00 17.5 18 Norte 28 Norte 0 1018.5 0.6 59
2019-04-08 20:00:00 18.2 16 Norte 31 Noroeste 0 1018 0 54
2019-04-08 19:00:00 19.5 21 Noroeste 32 Norte 0 1017.7 -0.9 53
2019-04-08 18:00:00 20.5 21 Norte 31 Norte 0 1017.9 -1.1 48
2019-04-08 17:00:00 21.1 21 Norte 30 Noroeste 0 1018 -1.3 47
2019-04-08 16:00:00 21.5 16 Noroeste 32 Norte 0 1018.6 -1.1 46
2019-04-08 15:00:00 21.7 20 Noroeste 33 Noroeste 0 1019 -1.1 46
2019-04-08 14:00:00 22 19 Noroeste 35 Norte 0 1019.3 -0.5 48
2019-04-08 13:00:00 21.7 21 Noroeste 31 Noroeste 0 1019.7 0.2 47
2019-04-08 12:00:00 20.2 15 Norte 26 Nordeste 0 1020.1 1 55
2019-04-08 11:00:00 19 14 Norte 23 Norte 0 1019.8 1.2 64
2019-04-08 10:00:00 19.6 10 Norte 18 Norte 0 1019.5 1.2 66
2019-04-08 09:00:00 17.7 8 Norte 14 Norte 0 1019.1 1.2 77
2019-04-08 08:00:00 16.2 10 Norte -- -- 0 1018.6 0.7 84
2019-04-08 07:00:00 15.9 9 Norte 18 Norte 0 1018.3 0.1 85
2019-04-08 06:00:00 15.6 11 Norte 16 Norte 0.2 1017.9 -0.9 86
2019-04-08 05:00:00 14.8 10 Norte 16 Norte 0 1017.9 -1.3 85
2019-04-08 04:00:00 15.1 12 Norte 16 Norte 0 1018.2 -1.4 84
2019-04-08 03:00:00 15.3 10 Norte 14 Norte 0 1018.8 -1 83
2019-04-08 02:00:00 15.7 9 Norte 19 Norte 0 1019.2 -0.7 79
2019-04-08 01:00:00 16.8 15 Norte 21 Norte 0 1019.6 0 77
2019-04-08 00:00:00 16.9 13 Norte 18 Norte 0 1019.8 0.7 79
2019-04-07 23:00:00 17.2 11 Noroeste 16 Noroeste 0 1019.9 1.2 76
2019-04-07 22:00:00 17.3 10 Noroeste 18 Norte 0 1019.6 1.1 75
2019-04-07 21:00:00 17.9 12 Noroeste 22 Noroeste 0 1019.1 0.6 74
2019-04-07 20:00:00 18.7 15 Noroeste 26 Noroeste 0 1018.7 0 71
2019-04-07 19:00:00 20.4 17 Noroeste 33 Noroeste 0 1018.5 -0.3 67
2019-04-07 18:00:00 21 20 Noroeste 27 Oeste 0 1018.5 -0.7 64
2019-04-07 17:00:00 21.4 18 Noroeste 28 Noroeste 0 1018.7 -1 61
2019-04-07 16:00:00 21.7 18 Noroeste 31 Noroeste 0 1018.8 -1.1 63
2019-04-07 15:00:00 21.6 19 Noroeste 30 Noroeste 0 1019.2 -0.8 59
2019-04-07 14:00:00 21.6 20 Noroeste 32 Norte 0 1019.7 -0.1 61
2019-04-07 13:00:00 21.1 18 Norte 32 Norte 0 1019.9 0.8 58
2019-04-07 12:00:00 20.1 20 Norte 31 Norte 0 1020 1.4 64
2019-04-07 11:00:00 18.9 23 Noroeste 31 Norte 0 1019.8 1.6 72
2019-04-07 10:00:00 18.5 22 Norte 29 Noroeste 0 1019.1 1.3 73
2019-04-07 09:00:00 17.6 15 Noroeste 23 Noroeste 0.6 1018.6 1.1 79
2019-04-07 08:00:00 17.1 15 Noroeste 27 Noroeste 0 1018.2 0.6 76
2019-04-07 07:00:00 16.9 13 Noroeste 23 Noroeste 0 1017.8 0.1 76
2019-04-07 06:00:00 16.7 12 Noroeste 18 Noroeste 0 1017.5 -0.9 75
2019-04-07 05:00:00 16.3 11 Noroeste 22 Noroeste 0 1017.6 -1.5 74
2019-04-07 04:00:00 16.4 16 Noroeste 23 Noroeste 0 1017.7 -1.9 70
2019-04-07 03:00:00 16.7 10 Noroeste 21 Noroeste 0 1018.4 -1.5 70
2019-04-07 02:00:00 15.9 13 Norte 18 Noroeste 0 1019.1 -0.9 70
2019-04-07 01:00:00 16.5 13 Norte 18 Norte 0 1019.6 0 71
2019-04-07 00:00:00 15.6 10 Norte 19 Norte 0 1019.9 1 70
2019-04-06 23:00:00 16 13 Norte 26 Norte 0 1020 1.6 65
2019-04-06 22:00:00 16.6 17 Norte 25 Norte 0 1019.6 1.5 62
2019-04-06 21:00:00 16.6 15 Norte 27 Noroeste 0 1018.9 0.9 62
2019-04-06 20:00:00 17.4 21 Norte 33 Norte 0 1018.4 0.5 58
2019-04-06 19:00:00 19 24 Norte 35 Norte 0 1018.1 0.1 57
2019-04-06 18:00:00 19.4 19 Noroeste 33 Norte 0 1018 -0.3 55
2019-04-06 17:00:00 20 21 Noroeste 37 Noroeste 0 1017.9 -0.8 52
2019-04-06 16:00:00 20.6 19 Norte 36 Norte 0 1018 -0.9 53
2019-04-06 15:00:00 20.3 25 Norte 39 Noroeste 0 1018.3 -0.8 51
2019-04-06 14:00:00 20.1 19 Noroeste 32 Noroeste 0 1018.7 -0.2 51
2019-04-06 13:00:00 19.7 20 Norte 35 Norte 0 1018.9 0.6 54
2019-04-06 12:00:00 19.1 22 Noroeste 33 Noroeste 0 1019.1 1.5 56
2019-04-06 11:00:00 16.4 24 Norte 34 Noroeste 0 1018.9 2 67
2019-04-06 10:00:00 15.4 18 Norte -- -- 0.2 1018.3 2 72
2019-04-06 09:00:00 16.5 20 Noroeste 32 Norte 0 1017.6 1.8 62
2019-04-06 08:00:00 15.2 23 Noroeste 35 Noroeste 0 1016.9 1.3 64
2019-04-06 07:00:00 15.2 25 Norte 36 Norte 0 1016.3 0.8 64
2019-04-06 06:00:00 15.3 24 Norte 41 Noroeste 0 1015.8 -0.3 64
2019-04-06 05:00:00 15.4 24 Noroeste 40 Noroeste 0 1015.6 -1.1 61
2019-04-06 04:00:00 15.2 20 Norte 33 Norte 0 1015.5 -1.8 69
2019-04-06 03:00:00 15.3 21 Noroeste 34 Noroeste 0 1016.1 -1.2 64
2019-04-06 02:00:00 15.4 24 Norte 36 Noroeste 0 1016.7 -0.5 68
2019-04-06 01:00:00 14.8 17 Norte 34 Norte 0 1017.3 0.5 77
2019-04-06 00:00:00 14.9 18 Norte 30 Noroeste 0 1017.3 1.4 79
2019-04-05 23:00:00 13.8 17 Norte 44 Norte 1 1017.2 2.1 92
2019-04-05 22:00:00 15.9 15 Norte 32 Norte 0 1016.8 1.8 74
2019-04-05 21:00:00 15.7 14 Norte 52 Noroeste 0.2 1015.9 1.1 78
2019-04-05 20:00:00 17.2 23 Norte 37 Norte 0 1015.1 0.7 68
2019-04-05 19:00:00 18.8 24 Noroeste 40 Noroeste 0 1015 0.2 57
2019-04-05 18:00:00 19 23 Noroeste 42 Noroeste 0 1014.8 -0.4 58
2019-04-05 17:00:00 17.9 17 Noroeste 40 Noroeste 0 1014.4 -1 75
2019-04-05 16:00:00 20.3 23 Noroeste 36 Noroeste 0 1014.8 -0.8 60
2019-04-05 15:00:00 19.3 24 Noroeste 48 Oeste 0.8 1015.2 -0.6 75
2019-04-05 14:00:00 21.3 27 Oeste 37 Oeste 0 1015.4 0 54
2019-04-05 13:00:00 20.8 26 Oeste 36 Oeste 0 1015.6 0.6 57
2019-04-05 12:00:00 19.3 19 Oeste 35 Oeste 0 1015.8 1.4 71
2019-04-05 11:00:00 19.3 21 Oeste 31 Oeste 0 1015.4 1.3 62
2019-04-05 10:00:00 18.8 23 Oeste 30 Oeste 0 1015 1.4 62
2019-04-05 09:00:00 17.5 17 Oeste 24 Oeste 0 1014.4 1.2 65
2019-04-05 08:00:00 16.4 13 Noroeste 24 Noroeste 0 1014.1 1.1 68
2019-04-05 07:00:00 15.5 12 Noroeste 25 Norte 0 1013.6 0.4 67
2019-04-05 06:00:00 16.3 18 Noroeste 28 Noroeste 0 1013.2 -0.2 65
2019-04-05 05:00:00 16.5 16 Noroeste 23 Noroeste 0 1013 -0.7 67
2019-04-05 04:00:00 16.1 11 Noroeste 21 Norte 0 1013.2 -0.8 68
2019-04-05 03:00:00 16.4 14 Oeste 27 Noroeste 0 1013.4 -0.1 72
2019-04-05 02:00:00 16.8 17 Noroeste 26 Noroeste 0 1013.7 0.5 66
2019-04-05 01:00:00 16.6 12 Noroeste 24 Noroeste 0 1014 1.2 68
2019-04-05 00:00:00 15.7 12 Noroeste 30 Norte 0 1013.5 1.3 74
2019-04-04 23:00:00 16.5 10 Noroeste 21 Noroeste 0 1013.2 1.5 70
2019-04-04 22:00:00 16.5 13 Noroeste 28 Noroeste 0 1012.8 1.5 70
2019-04-04 21:00:00 16.9 17 Norte 26 Norte 0 1012.2 1.1 70
2019-04-04 20:00:00 17.5 18 Noroeste 29 Noroeste 0 1011.7 0.6 66
2019-04-04 19:00:00 18.4 16 Noroeste 26 Noroeste 0 1011.3 0.1 64
2019-04-04 18:00:00 19.4 15 Noroeste 35 Noroeste 0 1011.1 -0.3 61
2019-04-04 17:00:00 20.4 13 Noroeste 35 Norte 0 1011.1 -0.5 54
2019-04-04 16:00:00 21.5 18 Noroeste 32 Norte 0 1011.2 -0.4 52
2019-04-04 15:00:00 20.9 19 Noroeste 27 Noroeste 0 1011.4 -0.3 54
2019-04-04 14:00:00 20.7 16 Noroeste 31 Noroeste 0 1011.6 0.3 57
2019-04-04 13:00:00 20.3 18 Noroeste 29 Noroeste 0 1011.6 1 61
2019-04-04 12:00:00 19.7 16 Noroeste 29 Noroeste 0 1011.7 1.8 59
2019-04-04 11:00:00 19.8 17 Noroeste 26 Oeste 0 1011.3 1.7 58
2019-04-04 10:00:00 18.5 11 Noroeste 18 Norte 0 1010.6 1.5 64
2019-04-04 09:00:00 17.2 12 Norte 22 Norte 0 1009.9 1.3 70
2019-04-04 08:00:00 14.8 16 Norte 27 Norte 0 1009.6 1.2 84
2019-04-04 07:00:00 15.6 18 Norte 29 Norte 0 1009.1 0.7 81
2019-04-04 06:00:00 14.7 9 Noroeste 13 Noroeste 0 1008.6 -0.3 84
2019-04-04 05:00:00 14.8 7 Noroeste 17 Noroeste 0 1008.4 -0.9 85
2019-04-04 04:00:00 16.2 11 Sur 18 Sur 0 1008.4 -1.3 82
2019-04-04 03:00:00 15.5 9 Sudoeste 16 Sudoeste 0 1008.9 -1.1 85
2019-04-04 02:00:00 16.7 14 Sudoeste 22 Sur 0 1009.3 -0.7 81
2019-04-04 01:00:00 16.6 11 Sudoeste 18 Sur 0 1009.7 0.1 83
2019-04-04 00:00:00 15.4 8 Sudoeste 10 Sudoeste 0 1010 0.9 83
2019-04-03 23:00:00 14.7 3 Sudoeste 4 Sudoeste 0 1010 1.4 82
2019-04-03 22:00:00 15.3 4 Norte 7 Norte 0 1009.6 1.2 79
2019-04-03 21:00:00 17.4 6 Norte 18 Norte 0 1009.1 0.8 73
2019-04-03 20:00:00 18.7 10 Norte 17 Noroeste 0 1008.6 0.3 71
2019-04-03 19:00:00 19.2 14 Oeste 22 Oeste 0 1008.4 0.2 73
2019-04-03 18:00:00 20.8 14 Oeste 30 Oeste 0 1008.3 -0.3 64
2019-04-03 17:00:00 21.1 22 Oeste 35 Oeste 0 1008.3 -0.9 67
2019-04-03 16:00:00 21.1 16 Oeste 30 Oeste 0 1008.2 -1.6 69
2019-04-03 15:00:00 21.1 11 Oeste 24 Noroeste 0 1008.6 -1.5 68
2019-04-03 14:00:00 20.5 18 Noroeste 28 Oeste 0 1009.2 -0.6 72
2019-04-03 13:00:00 22.3 16 Sudoeste 24 Sudoeste 0 1009.8 0.5 63
2019-04-03 12:00:00 20.3 11 Sudoeste 17 Oeste 0 1010.1 1 71
2019-04-03 11:00:00 19.6 12 Oeste 17 Sudoeste 0 1009.8 1.2 71
2019-04-03 10:00:00 19.1 12 Oeste 19 Oeste 0 1009.3 1.2 74
2019-04-03 09:00:00 18.2 8 Oeste 13 Oeste 0 1009.1 1.5 81
2019-04-03 08:00:00 15.6 11 Sudoeste 15 Oeste 0 1008.6 0.9 89
2019-04-03 07:00:00 15.5 10 Oeste 13 Oeste 0 1008.1 0 89
2019-04-03 06:00:00 15.7 11 Sudoeste 14 Sudoeste 0 1007.6 -0.7 88
2019-04-03 05:00:00 15.9 10 Oeste 15 Sudoeste 0 1007.7 -1.1 89
2019-04-03 04:00:00 16.3 10 Oeste 13 Oeste 0 1008.1 -1.2 90
2019-04-03 03:00:00 15.9 11 Oeste 12 Oeste 0 1008.3 -1 91
2019-04-03 02:00:00 16.1 10 Sudoeste 12 Sudoeste 0 1008.8 -0.7 92
2019-04-03 01:00:00 15.7 6 Sudoeste 7 Oeste 0 1009.3 0.5 91
2019-04-03 00:00:00 15.5 0 Calma 6 Nordeste 0 1009.3 1.4 88
2019-04-02 23:00:00 16.3 3 Noroeste 9 Noroeste 0 1009.5 2 88
2019-04-02 22:00:00 17.2 8 Noroeste 21 Norte 0 1008.8 1.9 84
2019-04-02 21:00:00 18 18 Norte 23 Norte 0 1007.9 1 85
2019-04-02 20:00:00 18.7 -- -- -- -- 0 1007.5 0.3 81
2019-04-02 19:00:00 20.2 23 Nordeste 30 Norte 0 1006.9 -1 73
2019-04-02 18:00:00 21.3 23 Nordeste 36 Nordeste 0 1006.9 -1.6 65
2019-04-02 17:00:00 21.8 28 Nordeste 36 Nordeste 0 1007.2 -1.6 64
2019-04-02 16:00:00 22.3 29 Nordeste 36 Nordeste 0 1007.9 -1.4 63
2019-04-02 15:00:00 22.7 28 Nordeste 42 Nordeste 0 1008.5 -1.6 62
2019-04-02 14:00:00 24.1 19 Nordeste 41 Norte 0 1008.8 -1.8 54
2019-04-02 13:00:00 23.3 18 Este 33 Sudeste 0 1009.3 -0.7 51
2019-04-02 12:00:00 22.5 20 Nordeste 32 Nordeste 0 1010.1 0.4 58
2019-04-02 11:00:00 21.3 14 Nordeste 34 Este 0 1010.6 1.2 59
2019-04-02 10:00:00 19.7 28 Este 38 Este 0 1010 0.8 66
2019-04-02 09:00:00 18.5 21 Este 39 Este 0 1009.7 0.6 74
2019-04-02 08:00:00 17.6 27 Este 46 Este 0 1009.4 0.4 77
2019-04-02 07:00:00 17.5 25 Este 40 Este 0 1009.2 -0.6 77
2019-04-02 06:00:00 17.4 24 Este 42 Este 0 1009.1 -1.4 75
2019-04-02 05:00:00 17.4 26 Este 41 Nordeste 0 1009 -2.3 78
2019-04-02 04:00:00 17.2 19 Este 37 Nordeste 0 1009.8 -1.8 77
2019-04-02 03:00:00 17.1 18 Nordeste 28 Este 0 1010.5 -1.5 76
2019-04-02 02:00:00 16.8 19 Nordeste 25 Nordeste 0 1011.3 -1 76
2019-04-02 01:00:00 17 18 Nordeste 22 Nordeste 0 1011.6 -0.4 79
2019-04-02 00:00:00 17 13 Nordeste 21 Nordeste 0 1012 0.4 79
2019-04-01 23:00:00 17.4 13 Nordeste 21 Nordeste 0 1012.3 1.1 78
2019-04-01 22:00:00 17.9 10 Este 22 Este 0 1012 1.1 74
2019-04-01 21:00:00 18.5 10 Sudeste 17 Este 0 1011.6 0.9 72
2019-04-01 20:00:00 18.9 12 Este 20 Este 0 1011.2 0.3 69
2019-04-01 19:00:00 20.6 9 Este 22 Este 0 1010.9 -0.8 58
2019-04-01 18:00:00 20.4 14 Este 24 Este 0 1010.7 -1.4 60
2019-04-01 17:00:00 22.1 14 Este 26 Este 0 1010.9 -1.8 54
2019-04-01 16:00:00 21.1 12 Este 25 Nordeste 0 1011.7 -1.8 57
2019-04-01 15:00:00 21.9 19 Nordeste 24 Nordeste 0 1012.1 -1.7 55
2019-04-01 14:00:00 22.3 18 Nordeste 23 Nordeste 0 1012.7 -1.2 58
2019-04-01 13:00:00 21.1 13 Este 20 Este 0 1013.5 -0.3 63
2019-04-01 12:00:00 20.2 11 Este 15 Nordeste 0 1013.8 0.5 64
2019-04-01 11:00:00 19.2 6 Sudeste 9 Este 0 1013.9 1.1 67
2019-04-01 10:00:00 18.2 4 Noroeste 7 Noroeste 0 1013.8 1.4 70
2019-04-01 09:00:00 17 3 Este 7 Noroeste 0 1013.3 1.1 81
2019-04-01 08:00:00 13.7 6 Norte 10 Noroeste 0 1012.8 0.7 88
2019-04-01 07:00:00 14.5 7 Noroeste 10 Noroeste 0 1012.4 0 85
2019-04-01 06:00:00 14.9 8 Noroeste 13 Noroeste 0 1012.2 -0.5 85
2019-04-01 05:00:00 14.5 9 Noroeste 13 Noroeste 0 1012.1 -1.2 88
2019-04-01 04:00:00 15.8 10 Norte 29 Noroeste 0.4 1012.4 -1.5 88
2019-04-01 03:00:00 16.5 5 Norte 8 Noroeste 0 1012.7 -1.4 82
2019-04-01 02:00:00 15.8 5 Noroeste 7 Noroeste 0 1013.3 -1 83
2019-04-01 01:00:00 15.7 2 Sudoeste 6 Noroeste 0 1013.9 -0.1 79
2019-04-01 00:00:00 16.2 5 Noroeste 6 Noroeste 0 1014.1 0.6 78
2019-03-31 23:00:00 17.2 5 Noroeste 14 Noroeste 0 1014.3 1.1 77
2019-03-31 22:00:00 17.7 9 Noroeste 17 Oeste 0 1014 0.8 76
2019-03-31 21:00:00 18 10 Oeste 17 Oeste 0 1013.5 0.6 72
2019-03-31 20:00:00 18.6 13 Oeste 21 Oeste 0 1013.2 0.3 69
2019-03-31 19:00:00 19.7 15 Oeste 23 Oeste 0 1013.2 0.2 65
2019-03-31 18:00:00 20.1 17 Oeste 27 Oeste 0 1012.9 -0.3 64
2019-03-31 17:00:00 20.9 17 Oeste 27 Oeste 0 1012.9 -1.1 63
2019-03-31 16:00:00 21.3 13 Oeste 23 Oeste 0 1013 -1.7 61
2019-03-31 15:00:00 21.6 17 Oeste 33 Sudoeste 0 1013.2 -1.9 62
2019-03-31 14:00:00 21.6 20 Sudoeste 27 Sudoeste 0 1014 -0.7 62
2019-03-31 13:00:00 20.5 14 Oeste 26 Oeste 0 1014.7 0.3 63
2019-03-31 12:00:00 20.5 17 Oeste 28 Oeste 0 1015.1 1.5 61
2019-03-31 11:00:00 20.1 15 Oeste 25 Oeste 0 1014.7 1.5 63
2019-03-31 10:00:00 19.5 17 Oeste 24 Oeste 0 1014.4 1.4 64
2019-03-31 09:00:00 18.3 14 Oeste 18 Oeste 0 1013.6 0.7 71
2019-03-31 08:00:00 16.3 10 Oeste 19 Oeste 0 1013.2 0 77
2019-03-31 07:00:00 16.8 14 Oeste 24 Oeste 0 1013 -0.2 76
2019-03-31 06:00:00 16.7 13 Oeste 24 Oeste 0 1012.9 -0.8 78
2019-03-31 05:00:00 16.8 15 Oeste 21 Oeste 0 1013.2 -1.2 76
2019-03-31 04:00:00 16.6 13 Oeste 17 Oeste 0 1013.2 -2 76
2019-03-31 00:00:00 17.2 13 Oeste 22 Oeste 0 1015.2 -0.1 73
2019-03-30 23:00:00 17.4 15 Oeste 24 Noroeste 0 1015.5 0.7 71
2019-03-30 22:00:00 17.6 15 Noroeste 26 Oeste 0 1015.6 1.4 72
2019-03-30 21:00:00 17.9 18 Oeste 24 Oeste 0 1015.3 1.6 72
2019-03-30 20:00:00 18.2 14 Oeste 23 Oeste 0 1014.8 1.2 69
2019-03-30 19:00:00 18.5 14 Oeste 24 Oeste 0 1014.2 0.7 66
2019-03-30 18:00:00 19.6 17 Oeste 24 Oeste 0 1013.7 0 61
2019-03-30 17:00:00 20.5 17 Oeste 24 Oeste 0 1013.6 -0.6 58
2019-03-30 16:00:00 20.8 17 Oeste 26 Oeste 0 1013.5 -1.2 59
2019-03-30 15:00:00 21.4 16 Oeste 23 Oeste 0 1013.7 -1.2 56
2019-03-30 14:00:00 21.2 16 Oeste 24 Oeste 0 1014.2 -0.7 57
2019-03-30 13:00:00 21.4 12 Oeste 25 Oeste 0 1014.7 0.3 56
2019-03-30 12:00:00 21.1 14 Oeste 22 Oeste 0 1014.9 0.9 56
2019-03-30 11:00:00 20.8 14 Oeste 22 Oeste 0 1014.9 1.3 56
2019-03-30 10:00:00 20.1 11 Noroeste 19 Noroeste 0 1014.4 1.2 57
2019-03-30 09:00:00 18.9 13 Noroeste 21 Noroeste 0 1014 1.3 65
2019-03-30 08:00:00 16.9 9 Norte 13 Norte 0 1013.6 1.1 73
2019-03-30 07:00:00 14 10 Norte 14 Norte 0 1013.2 0.5 81
2019-03-30 06:00:00 14.3 12 Norte 15 Norte 0 1012.7 -0.5 80
2019-03-30 05:00:00 14.1 12 Norte 13 Norte 0 1012.5 -1.1 79
2019-03-30 04:00:00 14.6 12 Norte 13 Norte 0 1012.7 -1.3 79
2019-03-30 03:00:00 14.8 11 Norte 13 Norte 0 1013.2 -1.1 79
2019-03-30 02:00:00 15.1 13 Norte 15 Norte 0 1013.6 -1 79
2019-03-30 01:00:00 15.5 12 Norte 17 Norte 0 1014 -0.6 77
2019-03-30 00:00:00 15.9 12 Norte 17 Norte 0 1014.3 0.1 77
2019-03-29 23:00:00 15.8 12 Norte 15 Norte 0 1014.6 1.1 79
2019-03-29 22:00:00 15.9 11 Norte 18 Norte 0 1014.6 1.4 78
2019-03-29 21:00:00 16.4 11 Norte 17 Norte 0 1014.2 1.2 74
2019-03-29 20:00:00 16.8 11 Norte 19 Nordeste 0 1013.5 0.4 73
2019-03-29 19:00:00 17.8 13 Nordeste 22 Norte 0 1013.2 0.2 69
2019-03-29 18:00:00 19.1 17 Nordeste 24 Nordeste 0 1013 -0.8 64
2019-03-29 17:00:00 20.6 16 Nordeste 26 Este 0 1013.1 -1.2 60
2019-03-29 16:00:00 20.9 21 Nordeste 27 Nordeste 0 1013 -2 60
2019-03-29 15:00:00 21.2 18 Nordeste 31 Nordeste 0 1013.8 -1.5 59
2019-03-29 14:00:00 21.7 20 Nordeste 29 Nordeste 0 1014.3 -1.2 57
2019-03-29 13:00:00 21.9 20 Nordeste 26 Nordeste 0 1015 -0.6 57
2019-03-29 12:00:00 21.4 19 Nordeste 28 Nordeste 0 1015.3 0.1 58
2019-03-29 11:00:00 21.1 18 Nordeste 25 Nordeste 0 1015.5 0.6 60
2019-03-29 10:00:00 20.4 18 Nordeste 23 Nordeste 0 1015.6 0.9 61
2019-03-29 09:00:00 19.3 15 Nordeste 22 Nordeste 0 1015.2 1 66
2019-03-29 08:00:00 17.2 10 Nordeste 15 Nordeste 0 1014.9 0.9 76
2019-03-29 07:00:00 14.5 10 Norte 18 Nordeste 0 1014.7 0.5 83
2019-03-29 06:00:00 15.6 13 Nordeste 21 Nordeste 0 1014.2 -0.2 80
2019-03-29 05:00:00 16.1 17 Nordeste 23 Nordeste 0 1014 -0.6 81
2019-03-29 04:00:00 15.4 15 Nordeste 22 Nordeste 0 1014.2 -1 83
2019-03-29 03:00:00 15.4 14 Nordeste 22 Nordeste 0 1014.4 -1.4 84
2019-03-29 02:00:00 14.2 14 Norte 17 Nordeste 0 1014.6 -1.5 86
2019-03-29 01:00:00 14.4 13 Nordeste 18 Nordeste 0 1015.2 -1.2 85
2019-03-29 00:00:00 14.7 13 Norte 16 Nordeste 0 1015.8 -0.4 83
2019-03-28 23:00:00 14.8 13 Nordeste 17 Norte 0 1016.1 0.5 81
2019-03-28 22:00:00 15.2 12 Norte 14 Norte 0 1016.4 1.1 79
2019-03-28 21:00:00 15.5 10 Norte 12 Norte 0 1016.2 1.4 76
2019-03-28 20:00:00 16.1 10 Nordeste 13 Norte 0 1015.6 1 73
2019-03-28 19:00:00 17.9 11 Nordeste 18 Nordeste 0 1015.3 0.6 68
2019-03-28 18:00:00 19.6 12 Nordeste 19 Nordeste 0 1014.8 0 62
2019-03-28 17:00:00 20.9 8 Norte 25 Noroeste 0 1014.6 -0.7 57
2019-03-28 16:00:00 21.4 12 Noroeste 23 Oeste 0 1014.7 -0.9 55
2019-03-28 15:00:00 21.7 10 Oeste 25 Noroeste 0 1014.8 -1.3 55
2019-03-28 14:00:00 21.8 13 Oeste 22 Oeste 0 1015.3 -1.1 55
2019-03-28 13:00:00 21.5 12 Este 17 Este 0 1015.6 -0.7 57
2019-03-28 12:00:00 20.9 6 Este 17 Nordeste 0 1016.1 0.1 57
2019-03-28 11:00:00 20.9 7 Norte 15 Nordeste 0 1016.4 0.9 57
2019-03-28 10:00:00 19.8 6 Sudoeste 12 Sudoeste 0 1016.3 1.3 61
2019-03-28 09:00:00 19.3 3 Nordeste 11 Norte 0 1016 1.4 64
2019-03-28 08:00:00 16.4 6 Norte 8 Norte 0 1015.5 1.3 84
2019-03-28 07:00:00 14.4 7 Norte 9 Norte 0 1015 0.9 88
2019-03-28 06:00:00 14.1 4 Norte 9 Norte 0 1014.6 0.4 89
2019-03-28 05:00:00 14.2 8 Norte 11 Norte 0 1014.2 -0.3 89
2019-03-28 04:00:00 14 10 Norte 14 Norte 0 1014.1 -0.5 90
2019-03-28 03:00:00 14.9 12 Norte 14 Norte 0 1014.2 -0.9 89
2019-03-28 02:00:00 14.4 8 Norte 12 Norte 0 1014.5 -0.6 87
2019-03-28 01:00:00 15.4 10 Norte 14 Norte 0 1014.6 -0.3 86
2019-03-28 00:00:00 15.9 9 Norte 14 Norte 0 1015.1 0.5 84
2019-03-27 23:00:00 16.1 9 Norte 11 Norte 0 1015.1 1.1 83
2019-03-27 22:00:00 16 8 Norte 10 Norte 0 1014.9 1.6 82
2019-03-27 21:00:00 16.1 7 Norte 9 Norte 0 1014.6 1.8 80
2019-03-27 20:00:00 17.3 6 Norte 15 Norte 0 1014 1.7 74
2019-03-27 19:00:00 18.9 11 Norte 17 Norte 0 1013.3 1.1 67
2019-03-27 18:00:00 19.9 14 Noroeste 22 Oeste 0 1012.8 0.2 71
2019-03-27 17:00:00 21 15 Oeste 24 Noroeste 0 1012.3 -0.8 61
2019-03-27 16:00:00 21.4 17 Oeste 24 Oeste 0 1012.2 -1.1 65
2019-03-27 15:00:00 21.3 16 Oeste 23 Oeste 0 1012.6 -0.8 67
2019-03-27 14:00:00 20.4 10 Oeste 16 Oeste 0 1013.1 -0.2 66
2019-03-27 13:00:00 19.7 10 Sudoeste 17 Sur 0 1013.3 0.6 75
2019-03-27 12:00:00 19.5 11 Sudoeste 20 Sudoeste 0 1013.4 1.2 76
2019-03-27 11:00:00 20.8 15 Sur 19 Sur 0 1013.3 1.9 69
2019-03-27 10:00:00 19.7 11 Sur 15 Sur 0 1012.7 1.5 74
2019-03-27 09:00:00 18.5 13 Sur 18 Sur 0 1012.2 1.9 80
2019-03-27 08:00:00 17 12 Sur 15 Sur 0 1011.4 1.8 89
2019-03-27 07:00:00 15.5 8 Sudoeste 12 Sudoeste 0 1011.2 1.9 92
2019-03-27 06:00:00 15.3 9 Sudoeste 14 Sudoeste 0 1010.3 0.9 92
2019-03-27 05:00:00 15.3 8 Sudoeste 11 Sudoeste 0 1009.6 0.2 92
2019-03-27 04:00:00 15.2 6 Sudoeste 11 Sudoeste 0 1009.3 -0.4 91
2019-03-27 03:00:00 15.1 9 Sudoeste 12 Sudoeste 0 1009.4 -0.6 91
2019-03-27 02:00:00 14.8 8 Sudoeste 9 Sudoeste 0 1009.4 -0.6 90
2019-03-27 01:00:00 14.8 5 Sudoeste 10 Sudoeste 0 1009.7 0 87
2019-03-27 00:00:00 14.6 4 Sudoeste 7 Sudoeste 0 1010 1.1 84